createdAt,value
2023-05-04T00:00:20.518Z,471.13
2023-05-04T00:01:20.504Z,471.79
2023-05-04T00:02:20.497Z,471.13
2023-05-04T00:03:20.558Z,459.53
2023-05-04T00:04:20.449Z,464.93
2023-05-04T00:05:20.441Z,467.85
2023-05-04T00:06:20.414Z,479.19
2023-05-04T00:07:20.441Z,491.10
2023-05-04T00:08:20.401Z,504.75
2023-05-04T00:09:20.382Z,508.96
2023-05-04T00:10:20.390Z,510.51
2023-05-04T00:11:20.347Z,520.80
2023-05-04T00:12:20.354Z,530.67
2023-05-04T00:13:20.334Z,530.67
2023-05-04T00:14:20.352Z,519.99
2023-05-04T00:15:20.302Z,524.86
2023-05-04T00:16:20.311Z,520.80
2023-05-04T00:17:20.307Z,526.92
2023-05-04T00:18:20.278Z,520.80
2023-05-04T00:19:20.253Z,522.42
2023-05-04T00:20:20.254Z,517.59
2023-05-04T00:21:20.237Z,507.04
2023-05-04T00:22:20.246Z,495.45
2023-05-04T00:23:20.221Z,485.42
2023-05-04T00:24:20.185Z,483.33
2023-05-04T00:25:20.180Z,479.19
2023-05-04T00:26:20.165Z,477.15
2023-05-04T00:27:20.164Z,477.49
2023-05-04T00:28:20.152Z,468.50
2023-05-04T00:29:20.172Z,469.48
2023-05-04T00:30:20.119Z,470.80
2023-05-04T00:31:20.179Z,459.84
2023-05-04T00:32:20.097Z,454.55
2023-05-04T00:33:20.067Z,453.63
2023-05-04T00:34:20.062Z,453.63
2023-05-04T00:35:20.078Z,436.54
2023-05-04T00:36:20.056Z,423.33
2023-05-04T00:37:20.018Z,417.28
2023-05-04T00:38:20.040Z,408.65
2023-05-04T00:39:20.009Z,399.90
2023-05-04T00:40:20.007Z,388.34
2023-05-04T00:41:19.983Z,377.43
2023-05-04T00:42:19.950Z,373.72
2023-05-04T00:43:19.941Z,360.67
2023-05-04T00:44:19.936Z,352.97
2023-05-04T00:45:19.925Z,343.79
2023-05-04T00:46:19.906Z,337.47
2023-05-04T00:47:20.088Z,339.21
2023-05-04T00:48:19.879Z,335.08
2023-05-04T00:49:19.883Z,334.06
2023-05-04T00:50:19.860Z,333.73
2023-05-04T00:51:19.840Z,330.06
2023-05-04T00:52:19.860Z,328.10
2023-05-04T00:53:19.830Z,328.42
2023-05-04T00:54:19.819Z,327.12
2023-05-04T00:55:19.786Z,323.60
2023-05-04T00:56:19.777Z,319.53
2023-05-04T00:57:19.790Z,325.19
2023-05-04T00:58:19.772Z,320.77
2023-05-04T00:59:19.744Z,318.92
2023-05-04T01:00:26.643Z,318.30
2023-05-04T01:01:19.823Z,318.92
2023-05-04T01:02:19.771Z,321.71
2023-05-04T01:03:19.812Z,324.23
2023-05-04T01:04:19.693Z,327.12
2023-05-04T01:05:19.695Z,329.08
2023-05-04T01:06:19.652Z,326.48
2023-05-04T01:07:19.684Z,321.40
2023-05-04T01:08:19.642Z,316.47
2023-05-04T01:09:19.637Z,313.47
2023-05-04T01:10:19.648Z,314.07
2023-05-04T01:11:19.631Z,313.18
2023-05-04T01:12:19.576Z,310.82
2023-05-04T01:13:19.581Z,305.36
2023-05-04T01:14:19.572Z,301.47
2023-05-04T01:15:19.601Z,294.75
2023-05-04T01:16:19.645Z,286.57
2023-05-04T01:17:19.593Z,279.54
2023-05-04T01:18:19.510Z,274.89
2023-05-04T01:19:19.483Z,266.47
2023-05-04T01:20:19.653Z,258.55
2023-05-04T01:21:19.455Z,252.24
2023-05-04T01:22:19.456Z,244.05
2023-05-04T01:23:19.433Z,237.22
2023-05-04T01:24:19.423Z,231.57
2023-05-04T01:25:19.449Z,225.26
2023-05-04T01:26:19.397Z,220.45
2023-05-04T01:27:19.407Z,213.75
2023-05-04T01:28:19.375Z,208.89
2023-05-04T01:29:19.362Z,203.11
2023-05-04T01:30:19.363Z,198.71
2023-05-04T01:31:19.397Z,194.96
2023-05-04T01:32:19.322Z,193.26
2023-05-04T01:33:19.303Z,192.58
2023-05-04T01:34:19.312Z,193.26
2023-05-04T01:35:19.282Z,194.62
2023-05-04T01:36:19.270Z,195.66
2023-05-04T01:37:19.274Z,196.12
2023-05-04T01:38:19.257Z,196.47
2023-05-04T01:39:19.231Z,197.88
2023-05-04T01:40:19.269Z,197.88
2023-05-04T01:41:19.195Z,198.48
2023-05-04T01:42:19.199Z,199.31
2023-05-04T01:43:19.171Z,200.16
2023-05-04T01:44:19.156Z,200.77
2023-05-04T01:45:19.182Z,198.95
2023-05-04T01:46:19.131Z,196.12
2023-05-04T01:47:19.128Z,193.03
2023-05-04T01:48:19.141Z,190.14
2023-05-04T01:49:19.095Z,187.98
2023-05-04T01:50:19.116Z,186.92
2023-05-04T01:51:19.092Z,186.29
2023-05-04T01:52:19.063Z,185.98
2023-05-04T01:53:19.051Z,185.16
2023-05-04T01:54:19.032Z,181.95
2023-05-04T01:55:19.033Z,180.59
2023-05-04T01:56:19.010Z,178.10
2023-05-04T01:57:19.007Z,173.68
2023-05-04T01:58:18.987Z,171.73
2023-05-04T01:59:18.985Z,170.51
2023-05-04T02:00:18.959Z,168.46
2023-05-04T02:01:19.049Z,168.80
2023-05-04T02:02:18.942Z,168.12
2023-05-04T02:03:19.059Z,166.46
2023-05-04T02:04:19.004Z,164.83
2023-05-04T02:05:19.042Z,162.91
2023-05-04T02:06:18.896Z,161.50
2023-05-04T02:07:18.898Z,158.31
2023-05-04T02:08:18.854Z,156.83
2023-05-04T02:09:18.862Z,153.68
2023-05-04T02:10:18.865Z,152.56
2023-05-04T02:11:18.816Z,149.31
2023-05-04T02:12:18.854Z,144.93
2023-05-04T02:13:18.862Z,142.48
2023-05-04T02:14:18.788Z,139.64
2023-05-04T02:15:18.786Z,137.58
2023-05-04T02:16:18.799Z,136.24
2023-05-04T02:17:18.802Z,135.58
2023-05-04T02:18:18.735Z,133.96
2023-05-04T02:19:18.747Z,132.59
2023-05-04T02:20:18.791Z,131.04
2023-05-04T02:21:18.698Z,130.03
2023-05-04T02:22:18.677Z,126.89
2023-05-04T02:23:18.697Z,124.35
2023-05-04T02:24:18.665Z,121.74
2023-05-04T02:25:18.667Z,120.26
2023-05-04T02:26:18.651Z,119.32
2023-05-04T02:27:18.637Z,117.98
2023-05-04T02:28:18.605Z,117.32
2023-05-04T02:29:18.603Z,116.03
2023-05-04T02:30:18.598Z,115.39
2023-05-04T02:31:18.600Z,114.76
2023-05-04T02:32:18.585Z,114.14
2023-05-04T02:33:18.589Z,113.75
2023-05-04T02:34:18.557Z,112.76
2023-05-04T02:35:18.531Z,112.01
2023-05-04T02:36:18.524Z,111.79
2023-05-04T02:37:18.549Z,110.90
2023-05-04T02:38:18.487Z,109.60
2023-05-04T02:39:18.476Z,109.31
2023-05-04T02:40:18.510Z,107.70
2023-05-04T02:41:18.467Z,106.95
2023-05-04T02:42:18.462Z,105.81
2023-05-04T02:43:18.488Z,104.43
2023-05-04T02:44:18.436Z,102.76
2023-05-04T02:45:18.514Z,101.46
2023-05-04T02:46:18.421Z,99.60
2023-05-04T02:47:18.408Z,97.69
2023-05-04T02:48:18.408Z,95.96
2023-05-04T02:49:18.390Z,95.04
2023-05-04T02:50:18.348Z,94.45
2023-05-04T02:51:18.357Z,94.77
2023-05-04T02:52:18.312Z,94.29
2023-05-04T02:53:18.360Z,95.04
2023-05-04T02:54:18.331Z,95.47
2023-05-04T02:55:18.292Z,95.63
2023-05-04T02:56:18.260Z,95.96
2023-05-04T02:57:18.268Z,96.57
2023-05-04T02:58:18.297Z,96.13
2023-05-04T02:59:18.229Z,96.68
2023-05-04T03:00:18.216Z,97.92
2023-05-04T03:01:18.341Z,98.32
2023-05-04T03:02:18.202Z,98.49
2023-05-04T03:03:18.211Z,99.48
2023-05-04T03:04:18.188Z,98.96
2023-05-04T03:05:18.157Z,98.55
2023-05-04T03:06:18.156Z,98.26
2023-05-04T03:07:18.217Z,97.63
2023-05-04T03:08:18.093Z,96.51
2023-05-04T03:09:18.097Z,95.15
2023-05-04T03:10:18.085Z,94.56
2023-05-04T03:11:18.086Z,95.07
2023-05-04T03:12:18.060Z,93.79
2023-05-04T03:13:18.194Z,93.17
2023-05-04T03:14:18.026Z,92.25
2023-05-04T03:15:18.048Z,91.15
2023-05-04T03:16:18.058Z,90.07
2023-05-04T03:17:18.008Z,89.69
2023-05-04T03:18:18.002Z,88.74
2023-05-04T03:19:18.001Z,89.03
2023-05-04T03:20:17.958Z,88.74
2023-05-04T03:21:17.982Z,88.84
2023-05-04T03:22:17.940Z,89.12
2023-05-04T03:23:17.941Z,89.31
2023-05-04T03:24:17.901Z,90.17
2023-05-04T03:25:17.905Z,90.66
2023-05-04T03:26:17.884Z,90.76
2023-05-04T03:27:17.874Z,91.45
2023-05-04T03:28:17.856Z,91.85
2023-05-04T03:29:17.858Z,92.25
2023-05-04T03:30:17.854Z,91.65
2023-05-04T03:31:17.877Z,91.75
2023-05-04T03:32:17.796Z,91.95
2023-05-04T03:33:17.813Z,92.76
2023-05-04T03:34:17.772Z,92.86
2023-05-04T03:35:24.266Z,93.69
2023-05-04T03:36:17.803Z,93.48
2023-05-04T03:37:17.752Z,93.69
2023-05-04T03:38:17.720Z,93.79
2023-05-04T03:39:17.753Z,93.69
2023-05-04T03:40:17.700Z,93.07
2023-05-04T03:41:17.700Z,92.05
2023-05-04T03:42:17.748Z,91.45
2023-05-04T03:43:17.678Z,90.37
2023-05-04T03:44:17.643Z,89.88
2023-05-04T03:45:17.637Z,88.84
2023-05-04T03:46:17.679Z,87.63
2023-05-04T03:47:17.633Z,87.45
2023-05-04T03:48:17.691Z,86.55
2023-05-04T03:49:17.583Z,85.41
2023-05-04T03:50:17.629Z,84.46
2023-05-04T03:51:17.566Z,83.79
2023-05-04T03:52:17.561Z,82.88
2023-05-04T03:53:17.542Z,81.83
2023-05-04T03:54:17.524Z,81.04
2023-05-04T03:55:17.496Z,80.89
2023-05-04T03:56:17.503Z,80.73
2023-05-04T03:57:17.491Z,80.73
2023-05-04T03:58:17.473Z,81.04
2023-05-04T03:59:17.466Z,80.73
2023-05-04T04:00:17.455Z,80.35
2023-05-04T04:01:17.422Z,79.89
2023-05-04T04:02:17.463Z,79.66
2023-05-04T04:03:17.603Z,79.74
2023-05-04T04:04:17.422Z,79.21
2023-05-04T04:05:17.376Z,79.06
2023-05-04T04:06:17.365Z,79.21
2023-05-04T04:07:17.376Z,79.51
2023-05-04T04:08:17.354Z,79.89
2023-05-04T04:09:17.332Z,80.04
2023-05-04T04:10:17.317Z,79.74
2023-05-04T04:11:17.309Z,80.35
2023-05-04T04:12:17.292Z,80.27
2023-05-04T04:13:17.336Z,80.65
2023-05-04T04:14:17.295Z,80.81
2023-05-04T04:15:17.251Z,80.58
2023-05-04T04:16:17.285Z,80.89
2023-05-04T04:17:17.254Z,80.89
2023-05-04T04:18:17.230Z,81.12
2023-05-04T04:19:17.215Z,81.20
2023-05-04T04:20:17.219Z,81.99
2023-05-04T04:21:17.178Z,81.12
2023-05-04T04:22:17.177Z,81.28
2023-05-04T04:23:17.151Z,80.89
2023-05-04T04:24:17.154Z,79.96
2023-05-04T04:25:17.135Z,79.29
2023-05-04T04:26:17.143Z,78.91
2023-05-04T04:27:17.104Z,77.96
2023-05-04T04:28:17.100Z,77.46
2023-05-04T04:29:17.074Z,76.61
2023-05-04T04:30:17.115Z,75.78
2023-05-04T04:31:17.151Z,75.38
2023-05-04T04:32:17.055Z,74.97
2023-05-04T04:33:17.084Z,73.72
2023-05-04T04:34:17.009Z,72.08
2023-05-04T04:35:17.000Z,70.80
2023-05-04T04:36:16.992Z,69.46
2023-05-04T04:37:16.970Z,68.50
2023-05-04T04:38:17.012Z,68.33
2023-05-04T04:39:17.079Z,67.08
2023-05-04T04:40:16.941Z,66.92
2023-05-04T04:41:16.937Z,66.65
2023-05-04T04:42:16.921Z,66.54
2023-05-04T04:43:16.912Z,66.54
2023-05-04T04:44:16.921Z,66.23
2023-05-04T04:45:16.873Z,66.33
2023-05-04T04:46:16.916Z,66.13
2023-05-04T04:47:16.869Z,66.13
2023-05-04T04:48:16.887Z,67.08
2023-05-04T04:49:16.869Z,67.08
2023-05-04T04:50:16.829Z,67.61
2023-05-04T04:51:16.795Z,68.27
2023-05-04T04:52:16.784Z,68.89
2023-05-04T04:53:16.768Z,69.40
2023-05-04T04:54:16.756Z,70.39
2023-05-04T04:55:16.743Z,71.29
2023-05-04T04:56:16.889Z,71.65
2023-05-04T04:57:16.711Z,72.39
2023-05-04T04:58:16.724Z,72.51
2023-05-04T04:59:16.704Z,72.77
2023-05-04T05:00:16.702Z,72.39
2023-05-04T05:01:16.778Z,71.22
2023-05-04T05:02:16.650Z,70.68
2023-05-04T05:03:16.899Z,69.98
2023-05-04T05:04:16.693Z,68.83
2023-05-04T05:05:16.660Z,67.83
2023-05-04T05:06:16.621Z,67.13
2023-05-04T05:07:16.654Z,66.44
2023-05-04T05:08:16.568Z,66.28
2023-05-04T05:09:16.569Z,66.86
2023-05-04T05:10:16.585Z,67.61
2023-05-04T05:11:16.557Z,67.89
2023-05-04T05:12:16.522Z,68.61
2023-05-04T05:13:16.668Z,70.27
2023-05-04T05:14:16.517Z,71.89
2023-05-04T05:15:16.511Z,72.89
2023-05-04T05:16:16.507Z,73.53
2023-05-04T05:17:16.464Z,75.65
2023-05-04T05:18:16.463Z,77.39
2023-05-04T05:19:16.458Z,78.18
2023-05-04T05:20:16.440Z,79.21
2023-05-04T05:21:16.487Z,80.27
2023-05-04T05:22:16.432Z,81.20
2023-05-04T05:23:16.399Z,81.67
2023-05-04T05:24:16.406Z,83.05
2023-05-04T05:25:16.367Z,84.13
2023-05-04T05:26:16.393Z,84.98
2023-05-04T05:27:16.357Z,87.82
2023-05-04T05:28:16.330Z,89.88
2023-05-04T05:29:16.337Z,91.25
2023-05-04T05:30:16.332Z,95.96
2023-05-04T05:31:16.347Z,101.71
2023-05-04T05:32:16.316Z,111.49
2023-05-04T05:33:16.266Z,118.40
2023-05-04T05:34:16.256Z,125.28
2023-05-04T05:35:16.273Z,134.18
2023-05-04T05:36:16.234Z,142.96
2023-05-04T05:37:16.222Z,155.96
2023-05-04T05:38:16.274Z,175.13
2023-05-04T05:39:16.236Z,184.75
2023-05-04T05:40:16.211Z,195.54
2023-05-04T05:41:16.182Z,197.76
2023-05-04T05:42:16.146Z,212.92
2023-05-04T05:43:16.170Z,229.16
2023-05-04T05:44:16.132Z,239.80
2023-05-04T05:45:16.120Z,253.59
2023-05-04T05:46:16.262Z,262.66
2023-05-04T05:47:16.103Z,270.17
2023-05-04T05:48:16.070Z,272.18
2023-05-04T05:49:16.063Z,291.11
2023-05-04T05:50:16.049Z,299.83
2023-05-04T05:51:16.056Z,300.92
2023-05-04T05:52:16.096Z,312.88
2023-05-04T05:53:16.058Z,315.57
2023-05-04T05:54:16.012Z,311.99
2023-05-04T05:55:15.983Z,314.07
2023-05-04T05:56:15.986Z,323.28
2023-05-04T05:57:15.968Z,339.21
2023-05-04T05:58:15.935Z,346.31
2023-05-04T05:59:15.979Z,355.63
2023-05-04T06:00:15.916Z,363.05
2023-05-04T06:01:15.988Z,370.79
2023-05-04T06:02:16.024Z,367.90
2023-05-04T06:03:16.088Z,373.30
2023-05-04T06:04:15.976Z,389.01
2023-05-04T06:05:15.903Z,407.66
2023-05-04T06:06:15.837Z,410.65
2023-05-04T06:07:15.854Z,413.18
2023-05-04T06:08:15.826Z,414.20
2023-05-04T06:09:15.808Z,422.53
2023-05-04T06:10:15.802Z,426.83
2023-05-04T06:11:15.774Z,434.00
2023-05-04T06:12:15.782Z,441.99
2023-05-04T06:13:15.877Z,447.29
2023-05-04T06:14:15.734Z,460.47
2023-05-04T06:15:15.726Z,468.83
2023-05-04T06:16:15.825Z,469.15
2023-05-04T06:17:15.700Z,481.25
2023-05-04T06:18:15.713Z,473.45
2023-05-04T06:19:15.689Z,478.85
2023-05-04T06:20:15.652Z,471.46
2023-05-04T06:21:15.655Z,479.19
2023-05-04T06:22:15.663Z,481.94
2023-05-04T06:23:15.646Z,484.38
2023-05-04T06:24:15.605Z,488.60
2023-05-04T06:25:15.605Z,482.29
2023-05-04T06:26:15.586Z,492.54
2023-05-04T06:27:15.575Z,494.72
2023-05-04T06:28:15.587Z,486.13
2023-05-04T06:29:15.544Z,484.72
2023-05-04T06:30:15.541Z,505.51
2023-05-04T06:31:15.544Z,508.96
2023-05-04T06:32:15.555Z,492.54
2023-05-04T06:33:15.495Z,482.29
2023-05-04T06:34:15.507Z,490.03
2023-05-04T06:35:15.480Z,507.81
2023-05-04T06:36:15.452Z,521.20
2023-05-04T06:37:16.254Z,534.47
2023-05-04T06:38:15.430Z,545.32
2023-05-04T06:39:15.435Z,558.00
2023-05-04T06:40:15.401Z,565.51
2023-05-04T06:41:15.397Z,576.18
2023-05-04T06:42:15.404Z,573.72
2023-05-04T06:43:15.380Z,592.44
2023-05-04T06:44:15.346Z,593.49
2023-05-04T06:45:15.442Z,607.99
2023-05-04T06:46:15.427Z,626.71
2023-05-04T06:47:15.313Z,638.01
2023-05-04T06:48:15.308Z,624.96
2023-05-04T06:49:15.287Z,624.38
2023-05-04T06:50:15.293Z,624.38
2023-05-04T06:51:15.275Z,628.46
2023-05-04T06:52:15.249Z,628.46
2023-05-04T06:53:15.251Z,641.67
2023-05-04T06:54:15.224Z,655.44
2023-05-04T06:55:15.204Z,694.04
2023-05-04T06:56:15.214Z,710.18
2023-05-04T06:57:15.193Z,714.71
2023-05-04T06:58:15.171Z,723.17
2023-05-04T06:59:15.177Z,724.73
2023-05-04T07:00:15.153Z,724.73
2023-05-04T07:01:16.946Z,734.24
2023-05-04T07:02:15.136Z,739.90
2023-05-04T07:03:15.183Z,722.40
2023-05-04T07:04:15.098Z,731.84
2023-05-04T07:05:15.080Z,741.53
2023-05-04T07:06:15.062Z,772.99
2023-05-04T07:07:15.119Z,809.75
2023-05-04T07:08:15.037Z,817.63
2023-05-04T07:09:15.112Z,851.27
2023-05-04T07:10:15.035Z,893.09
2023-05-04T07:11:15.056Z,963.47
2023-05-04T07:12:14.982Z,1029.86
2023-05-04T07:13:15.088Z,1050.78
2023-05-04T07:14:14.967Z,1072.57
2023-05-04T07:15:14.946Z,1127.41
2023-05-04T07:16:14.991Z,1172.62
2023-05-04T07:17:14.929Z,1207.36
2023-05-04T07:18:14.898Z,1212.80
2023-05-04T07:19:14.919Z,1246.52
2023-05-04T07:20:14.963Z,1305.82
2023-05-04T07:22:14.872Z,1501.12
2023-05-04T07:23:14.876Z,1542.43
2023-05-04T07:24:14.844Z,1557.61
2023-05-04T07:25:14.845Z,1558.52
2023-05-04T07:26:14.866Z,1532.76
2023-05-04T07:27:14.814Z,1530.15
2023-05-04T07:28:14.788Z,1574.02
2023-05-04T07:29:14.786Z,1589.83
2023-05-04T07:30:14.778Z,1603.10
2023-05-04T07:31:14.821Z,1665.63
2023-05-04T07:32:14.784Z,1669.77
2023-05-04T07:33:14.818Z,1654.37
2023-05-04T07:34:14.825Z,1574.94
2023-05-04T07:35:14.742Z,1658.45
2023-05-04T07:36:14.745Z,1668.73
2023-05-04T07:37:14.698Z,1654.37
2023-05-04T07:38:14.885Z,1663.57
2023-05-04T07:39:14.675Z,1667.70
2023-05-04T07:40:14.685Z,1639.24
2023-05-04T07:41:14.670Z,1605.01
2023-05-04T07:42:14.676Z,1555.81
2023-05-04T07:43:14.668Z,1506.16
2023-05-04T07:44:14.621Z,1444.68
2023-05-04T07:45:14.611Z,1504.47
2023-05-04T07:46:14.657Z,1709.02
2023-05-04T07:47:14.601Z,1843.73
2023-05-04T07:48:14.688Z,1929.70
2023-05-04T07:49:14.587Z,2018.00
2023-05-04T07:50:14.575Z,2050.30
2023-05-04T07:51:14.715Z,2172.86
2023-05-04T07:52:14.601Z,2176.38
2023-05-04T07:53:14.542Z,2169.35
2023-05-04T07:54:14.564Z,2113.12
2023-05-04T07:55:14.555Z,2034.80
2023-05-04T07:56:14.499Z,2106.50
2023-05-04T07:57:14.505Z,2183.44
2023-05-04T07:58:14.524Z,2230.51
2023-05-04T07:59:14.472Z,2258.61
2023-05-04T08:00:14.482Z,2378.43
2023-05-04T08:01:14.523Z,2355.52
2023-05-04T08:02:14.487Z,2380.53
2023-05-04T08:03:14.450Z,2312.98
2023-05-04T08:04:14.457Z,2176.38
2023-05-04T08:05:14.389Z,2078.82
2023-05-04T08:06:14.439Z,2010.46
2023-05-04T08:07:14.436Z,2044.07
2023-05-04T08:08:14.370Z,2048.74
2023-05-04T08:09:14.392Z,2241.67
2023-05-04T08:10:14.409Z,2343.21
2023-05-04T08:11:20.348Z,2378.43
2023-05-04T08:12:14.331Z,2523.45
2023-05-04T08:13:14.429Z,2687.31
2023-05-04T08:14:14.316Z,2733.74
2023-05-04T08:15:14.317Z,2861.70
2023-05-04T08:16:14.412Z,2861.70
2023-05-04T08:17:14.284Z,2949.56
2023-05-04T08:18:14.292Z,2962.55
2023-05-04T08:19:14.371Z,2936.68
2023-05-04T08:20:14.312Z,3020.77
2023-05-04T08:21:14.251Z,3048.16
2023-05-04T08:22:14.437Z,2933.48
2023-05-04T08:23:14.242Z,2805.00
2023-05-04T08:24:14.218Z,2753.33
2023-05-04T08:25:14.359Z,2776.06
2023-05-04T08:26:14.200Z,2852.60
2023-05-04T08:27:14.199Z,2927.09
2023-05-04T08:28:14.281Z,2904.97
2023-05-04T08:29:14.196Z,2889.37
2023-05-04T08:30:14.168Z,3037.83
2023-05-04T08:31:14.402Z,3074.28
2023-05-04T08:32:14.160Z,2933.48
2023-05-04T08:33:14.697Z,3072.53
2023-05-04T08:34:14.293Z,3100.86
2023-05-04T08:35:14.128Z,3055.08
2023-05-04T08:36:14.124Z,3015.70
2023-05-04T08:37:14.272Z,3051.62
2023-05-04T08:38:14.087Z,3240.96
2023-05-04T08:39:14.094Z,3250.75
2023-05-04T08:40:14.274Z,3111.62
2023-05-04T08:41:14.078Z,2886.27
2023-05-04T08:42:14.082Z,2764.65
2023-05-04T08:43:14.054Z,2695.39
2023-05-04T08:44:14.089Z,2700.80
2023-05-04T08:45:14.039Z,2813.81
2023-05-04T08:46:14.112Z,2742.10
2023-05-04T08:47:14.056Z,2611.65
2023-05-04T08:48:14.034Z,2642.44
2023-05-04T08:49:14.100Z,2703.52
2023-05-04T08:50:14.009Z,2828.60
2023-05-04T08:51:14.011Z,2914.41
2023-05-04T08:52:14.051Z,2813.81
2023-05-04T08:53:14.028Z,2706.24
2023-05-04T08:54:13.978Z,2293.26
2023-05-04T08:55:14.051Z,2314.97
2023-05-04T08:56:14.098Z,2474.70
2023-05-04T08:57:13.986Z,2843.55
2023-05-04T08:58:13.944Z,2880.08
2023-05-04T08:59:14.112Z,2647.64
2023-05-04T09:00:13.921Z,2634.67
2023-05-04T09:01:13.991Z,2614.19
2023-05-04T09:02:14.189Z,2488.44
2023-05-04T09:03:13.955Z,2506.99
2023-05-04T09:04:13.902Z,2397.50
2023-05-04T09:05:13.885Z,2465.63
2023-05-04T09:06:13.866Z,2447.68
2023-05-04T09:07:14.225Z,2463.37
2023-05-04T09:08:14.111Z,2557.03
2023-05-04T09:09:14.224Z,2540.13
2023-05-04T09:10:14.004Z,2596.52
2023-05-04T09:11:13.851Z,2637.25
2023-05-04T09:12:14.058Z,2695.39
2023-05-04T09:13:14.264Z,2658.10
2023-05-04T09:14:14.910Z,2601.55
2023-05-04T09:15:17.019Z,2719.92
2023-05-04T09:16:16.967Z,2673.96
2023-05-04T09:17:16.599Z,2624.39
2023-05-04T09:18:15.842Z,2619.28
2023-05-04T09:19:17.360Z,2611.65
2023-05-04T09:20:15.576Z,2614.19
2023-05-04T09:21:17.116Z,2629.52
2023-05-04T09:22:16.150Z,2591.52
2023-05-04T09:23:14.060Z,2744.90
2023-05-04T09:24:13.734Z,2819.71
2023-05-04T09:25:13.780Z,2432.19
2023-05-04T09:26:13.712Z,2614.19
2023-05-04T09:27:13.734Z,2666.01
2023-05-04T09:28:13.702Z,2650.25
2023-05-04T09:29:13.711Z,2581.57
2023-05-04T09:30:13.690Z,2511.67
2023-05-04T09:31:13.759Z,2458.87
2023-05-04T09:32:13.659Z,2642.44
2023-05-04T09:33:13.673Z,2849.58
2023-05-04T09:34:13.746Z,2898.71
2023-05-04T09:35:25.322Z,2846.56
2023-05-04T09:36:13.652Z,2843.55
2023-05-04T09:37:13.646Z,2837.55
2023-05-04T09:38:13.628Z,2873.93
2023-05-04T09:39:13.694Z,3077.80
2023-05-04T09:40:13.631Z,3122.46
2023-05-04T09:41:13.626Z,3062.04
2023-05-04T09:42:13.687Z,3002.23
2023-05-04T09:43:13.644Z,2767.49
2023-05-04T09:44:13.688Z,2642.44
2023-05-04T09:45:13.618Z,2380.53
2023-05-04T09:46:13.668Z,2414.72
2023-05-04T09:47:13.565Z,2461.12
2023-05-04T09:48:13.552Z,2502.32
2023-05-04T09:49:13.744Z,2690.00
2023-05-04T09:50:13.592Z,2858.66
2023-05-04T09:51:13.570Z,2959.30
2023-05-04T09:52:13.547Z,2773.20
2023-05-04T09:53:13.554Z,2828.60
2023-05-04T09:54:13.504Z,2819.71
2023-05-04T09:55:13.635Z,2581.57
2023-05-04T09:56:13.537Z,2476.98
2023-05-04T09:57:13.581Z,2345.25
2023-05-04T09:58:13.478Z,2303.08
2023-05-04T09:59:13.589Z,2429.99
2023-05-04T10:00:13.476Z,2423.42
2023-05-04T10:01:13.530Z,2596.52
2023-05-04T10:02:22.532Z,2681.95
2023-05-04T10:03:13.524Z,2552.18
2023-05-04T10:04:13.455Z,2434.39
2023-05-04T10:05:13.459Z,2367.96
2023-05-04T10:06:13.412Z,2458.87
2023-05-04T10:07:13.408Z,2537.74
2023-05-04T10:08:13.421Z,2658.10
2023-05-04T10:09:13.484Z,2574.16
2023-05-04T10:10:13.415Z,2467.89
2023-05-04T10:11:13.397Z,2374.23
2023-05-04T10:12:13.424Z,2361.72
2023-05-04T10:13:13.495Z,2535.34
2023-05-04T10:14:14.191Z,2758.97
2023-05-04T10:15:13.360Z,2739.31
2023-05-04T10:16:13.382Z,2711.69
2023-05-04T10:17:13.932Z,2591.52
2023-05-04T10:18:13.346Z,2676.62
2023-05-04T10:19:13.311Z,2566.79
2023-05-04T10:20:13.317Z,2506.99
2023-05-04T10:21:13.305Z,2367.96
2023-05-04T10:22:13.300Z,2312.98
2023-05-04T10:23:13.297Z,2436.59
2023-05-04T10:24:13.272Z,2463.37
2023-05-04T10:25:13.302Z,2470.16
2023-05-04T10:26:13.266Z,2554.60
2023-05-04T10:27:13.290Z,2671.30
2023-05-04T10:28:13.253Z,2626.95
2023-05-04T10:29:13.291Z,2599.03
2023-05-04T10:30:13.281Z,2557.03
2023-05-04T10:31:13.265Z,2552.18
2023-05-04T10:32:13.191Z,2542.53
2023-05-04T10:33:13.307Z,2756.15
2023-05-04T10:34:13.236Z,2676.62
2023-05-04T10:35:13.280Z,2663.37
2023-05-04T10:36:13.170Z,2476.98
2023-05-04T10:37:13.183Z,2309.01
2023-05-04T10:38:13.193Z,2374.23
2023-05-04T10:39:13.165Z,2343.21
2023-05-04T10:40:13.153Z,2311.00
2023-05-04T10:41:13.131Z,2121.45
2023-05-04T10:42:13.168Z,2062.88
2023-05-04T10:43:13.151Z,2206.73
2023-05-04T10:44:13.100Z,2351.40
2023-05-04T10:45:13.124Z,2351.40
2023-05-04T10:46:13.159Z,2419.06
2023-05-04T10:47:13.072Z,2384.75
2023-05-04T10:48:13.168Z,2331.02
2023-05-04T10:49:13.082Z,2262.41
2023-05-04T10:50:13.074Z,2201.31
2023-05-04T10:51:13.051Z,2131.54
2023-05-04T10:52:13.029Z,2192.34
2023-05-04T10:53:13.071Z,2158.91
2023-05-04T10:54:13.088Z,2194.13
2023-05-04T10:55:13.055Z,2164.12
2023-05-04T10:56:13.011Z,2190.55
2023-05-04T10:57:13.023Z,2363.80
2023-05-04T10:58:13.051Z,2254.82
2023-05-04T10:59:12.995Z,2351.40
2023-05-04T11:00:13.050Z,2271.96
2023-05-04T11:01:13.082Z,2176.38
2023-05-04T11:02:13.072Z,2197.71
2023-05-04T11:03:13.064Z,2160.64
2023-05-04T11:04:12.979Z,2226.82
2023-05-04T11:05:12.982Z,2268.13
2023-05-04T11:06:12.987Z,2260.50
2023-05-04T11:07:13.016Z,2131.54
2023-05-04T11:08:13.784Z,2055.00
2023-05-04T11:09:13.777Z,2289.36
2023-05-04T11:10:13.046Z,2277.73
2023-05-04T11:11:12.923Z,2247.28
2023-05-04T11:12:12.878Z,2365.88
2023-05-04T11:13:12.966Z,2537.74
2023-05-04T11:14:12.883Z,2655.48
2023-05-04T11:15:12.875Z,2647.64
2023-05-04T11:16:12.939Z,2684.63
2023-05-04T11:17:27.577Z,2698.09
2023-05-04T11:18:13.062Z,2637.25
2023-05-04T11:19:12.888Z,2611.65
2023-05-04T11:20:12.887Z,2679.28
2023-05-04T11:21:12.819Z,2793.35
2023-05-04T11:22:12.868Z,2959.30
2023-05-04T11:23:12.840Z,3099.08
2023-05-04T11:24:13.011Z,2895.59
2023-05-04T11:25:13.015Z,3204.29
2023-05-04T11:26:12.799Z,3821.02
2023-05-04T11:27:12.829Z,4256.33
2023-05-04T11:28:14.383Z,4711.03
2023-05-04T11:29:12.816Z,4521.01
2023-05-04T11:30:12.788Z,4242.90
2023-05-04T11:31:12.942Z,4100.61
2023-05-04T11:32:12.754Z,4324.76
2023-05-04T11:33:12.727Z,4694.59
2023-05-04T11:34:13.074Z,4711.03
2023-05-04T11:35:12.747Z,4300.56
2023-05-04T11:36:12.824Z,4069.59
2023-05-04T11:37:19.049Z,4698.69
2023-05-04T11:38:19.358Z,5032.74
2023-05-04T11:39:14.680Z,5213.18
2023-05-04T11:40:14.836Z,4625.97
2023-05-04T11:41:15.764Z,4606.16
2023-05-04T11:42:14.812Z,4352.75
2023-05-04T11:43:15.759Z,4304.00
2023-05-04T11:44:14.842Z,4505.86
2023-05-04T11:45:14.140Z,4922.23
2023-05-04T11:46:17.285Z,5358.56
2023-05-04T11:47:15.480Z,5385.38
2023-05-04T11:48:16.479Z,5264.19
2023-05-04T11:49:14.326Z,5290.07
2023-05-04T11:50:13.789Z,5310.96
2023-05-04T11:51:12.623Z,4761.06
2023-05-04T11:52:12.634Z,3864.94
2023-05-04T11:53:12.612Z,4045.11
2023-05-04T11:54:12.581Z,3873.29
2023-05-04T11:55:12.630Z,3947.18
2023-05-04T11:56:12.598Z,4206.41
2023-05-04T11:57:12.532Z,4540.08
2023-05-04T11:58:12.529Z,4551.61
2023-05-04T11:59:12.621Z,4359.81
2023-05-04T12:00:12.578Z,3970.48
2023-05-04T12:01:12.509Z,3932.75
2023-05-04T12:02:12.556Z,3994.06
2023-05-04T12:03:12.569Z,3941.39
2023-05-04T12:04:12.600Z,4116.30
2023-05-04T12:05:12.585Z,4170.54
2023-05-04T12:06:12.660Z,4252.96
2023-05-04T12:07:12.714Z,4125.77
2023-05-04T12:08:12.593Z,4252.96
2023-05-04T12:09:12.526Z,4085.04
2023-05-04T12:10:12.541Z,4256.33
2023-05-04T12:11:12.516Z,3859.40
2023-05-04T12:12:13.162Z,3459.81
2023-05-04T12:13:12.494Z,3274.50
2023-05-04T12:14:12.395Z,3248.79
2023-05-04T12:15:12.497Z,3567.64
2023-05-04T12:16:12.503Z,3211.94
2023-05-04T12:17:12.374Z,3100.86
2023-05-04T12:18:12.377Z,3268.53
2023-05-04T12:19:12.367Z,3679.89
2023-05-04T12:20:12.504Z,4128.93
2023-05-04T12:21:12.355Z,4106.87
2023-05-04T12:22:12.350Z,3976.35
2023-05-04T12:23:12.363Z,3912.73
2023-05-04T12:24:12.309Z,3890.09